Time;durP1;ratioP1;P1;durP2;ratioP2;P2;SDS_P1;SDS_P2;PMS_P1;PMS_P2;Temp;Humidity;BMP_temperature;BMP_pressure;BME280_temperature;BME280_humidity;BME280_pressure;Samples;Min_cycle;Max_cycle;Signal;HPM_P1;HPM_P2
2021/03/09 00:01:22;;;;;;;27.65;16.85;;;;;;;7.29;72.75;101192.72;5072019;28;20020;-84
2021/03/09 00:03:47;;;;;;;28.63;16.33;;;;;;;7.34;72.33;101184.69;5071708;28;20374;-84
2021/03/09 00:06:13;;;;;;;30.58;16.25;;;;;;;7.36;71.90;101190.69;5071972;28;20037;-84
2021/03/09 00:08:38;;;;;;;23.67;16.15;;;;;;;7.07;72.96;101184.94;5066055;28;20020;-84
2021/03/09 00:11:03;;;;;;;25.33;15.77;;;;;;;7.06;73.24;101172.78;5069938;28;20119;-84
2021/03/09 00:13:29;;;;;;;20.80;15.52;;;;;;;7.19;72.78;101177.50;5072829;28;20040;-84
2021/03/09 00:15:54;;;;;;;26.77;15.95;;;;;;;7.13;72.86;101179.47;5071929;28;20032;-84
2021/03/09 00:18:19;;;;;;;25.40;16.13;;;;;;;7.20;72.85;101171.38;5072908;28;20024;-84
2021/03/09 00:20:45;;;;;;;31.25;15.68;;;;;;;7.13;72.52;101166.41;5072141;28;20028;-84
2021/03/09 00:23:10;;;;;;;26.55;16.92;;;;;;;7.04;73.52;101166.78;5072508;28;20020;-84
2021/03/09 00:25:35;;;;;;;27.65;16.25;;;;;;;6.90;74.46;101163.88;5070937;28;20386;-84
2021/03/09 00:28:00;;;;;;;28.75;16.35;;;;;;;7.08;73.01;101155.28;5072906;28;20040;-84
2021/03/09 00:30:26;;;;;;;28.10;17.58;;;;;;;7.04;73.64;101153.72;5072019;28;20398;-84
2021/03/09 00:32:51;;;;;;;24.17;17.58;;;;;;;7.07;73.03;101158.81;5071884;28;20060;-84
2021/03/09 00:35:17;;;;;;;24.33;16.98;;;;;;;7.22;72.26;101159.94;5070299;28;20123;-84
2021/03/09 00:37:42;;;;;;;26.10;16.52;;;;;;;7.34;71.62;101151.56;5071556;28;20467;-84
2021/03/09 00:40:08;;;;;;;31.83;18.08;;;;;;;7.07;73.02;101148.38;5070666;28;20044;-84
2021/03/09 00:42:34;;;;;;;35.10;21.25;;;;;;;7.07;72.96;101150.13;5070656;28;20021;-84
2021/03/09 00:44:59;;;;;;;29.20;17.92;;;;;;;6.93;73.50;101146.34;5072256;28;20050;-84
2021/03/09 00:47:24;;;;;;;30.90;19.52;;;;;;;6.99;73.39;101150.47;5071588;28;20112;-84
2021/03/09 00:49:50;;;;;;;34.10;18.40;;;;;;;7.05;72.82;101144.97;5071330;28;20056;-84
2021/03/09 00:52:15;;;;;;;33.63;18.20;;;;;;;7.18;72.37;101141.84;5071226;28;20440;-84
2021/03/09 00:54:40;;;;;;;28.98;18.20;;;;;;;6.98;72.63;101140.06;5071453;28;20027;-84
2021/03/09 00:57:06;;;;;;;28.35;18.40;;;;;;;6.91;73.03;101142.94;5072131;28;20036;-84
2021/03/09 00:59:31;;;;;;;27.88;18.10;;;;;;;6.93;72.78;101150.69;5072119;28;20020;-84
2021/03/09 01:01:57;;;;;;;28.35;18.10;;;;;;;7.01;72.08;101148.63;5072208;28;20024;-84
2021/03/09 01:04:22;;;;;;;28.15;17.88;;;;;;;7.01;72.37;101148.63;5072184;28;20032;-84
2021/03/09 01:06:47;;;;;;;39.53;17.83;;;;;;;6.86;72.38;101149.25;5072560;28;20028;-84
2021/03/09 01:09:13;;;;;;;30.77;17.73;;;;;;;6.93;72.09;101148.06;5071312;28;20078;-84
2021/03/09 01:11:38;;;;;;;28.75;17.80;;;;;;;6.78;72.35;101144.34;5071805;28;20081;-84
2021/03/09 01:14:04;;;;;;;33.13;19.70;;;;;;;6.68;74.21;101143.03;5070896;28;20035;-84
2021/03/09 01:16:29;;;;;;;31.63;20.35;;;;;;;6.67;74.71;101147.38;5071149;28;20401;-84
2021/03/09 01:18:54;;;;;;;26.55;17.30;;;;;;;6.88;72.82;101144.81;5071022;28;20036;-84
2021/03/09 01:21:20;;;;;;;26.00;18.25;;;;;;;6.95;72.18;101151.47;5072345;28;20029;-84
2021/03/09 01:23:45;;;;;;;25.52;16.77;;;;;;;6.89;72.14;101150.00;5071115;28;20033;-84
2021/03/09 01:26:10;;;;;;;25.83;16.23;;;;;;;6.81;72.01;101153.81;5071298;28;20039;-84
2021/03/09 01:28:36;;;;;;;27.08;16.73;;;;;;;6.85;71.89;101155.38;5072290;28;20029;-84
2021/03/09 01:31:01;;;;;;;24.70;16.75;;;;;;;6.84;71.08;101164.13;5071288;28;20032;-84
2021/03/09 01:33:26;;;;;;;25.33;17.00;;;;;;;6.99;71.16;101163.53;5071063;28;20125;-84
2021/03/09 01:35:52;;;;;;;29.52;19.23;;;;;;;6.75;73.51;101157.50;5068585;28;20023;-84
2021/03/09 01:38:17;;;;;;;32.15;20.15;;;;;;;6.66;73.61;101156.13;5070417;28;20108;-84
2021/03/09 01:40:42;;;;;;;30.48;19.60;;;;;;;6.75;73.41;101162.72;5070808;28;20062;-84
2021/03/09 01:43:08;;;;;;;36.42;19.85;;;;;;;6.55;75.13;101153.06;5071696;28;20070;-84
2021/03/09 01:45:34;;;;;;;32.00;19.27;;;;;;;6.28;76.39;101150.63;5070647;28;20040;-84
2021/03/09 01:48:03;;;;;;;28.38;18.67;;;;;;;6.27;76.39;101156.75;5071746;28;20040;-84
2021/03/09 01:50:29;;;;;;;29.58;17.30;;;;;;;6.59;74.77;101159.03;5071109;28;20029;-84
2021/03/09 01:52:55;;;;;;;32.35;17.77;;;;;;;6.84;73.21;101146.69;5071316;28;20467;-84
2021/03/09 01:55:21;;;;;;;22.30;16.10;;;;;;;6.88;72.68;101145.66;5070399;28;20028;-84
2021/03/09 01:57:47;;;;;;;28.00;16.27;;;;;;;6.66;73.49;101140.47;5070819;28;20449;-84
2021/03/09 02:00:14;;;;;;;27.70;15.93;;;;;;;6.88;73.04;101134.38;5071818;28;20090;-83
2021/03/09 02:02:40;;;;;;;31.67;16.50;;;;;;;6.81;73.61;101132.91;5068383;28;20070;-84
2021/03/09 02:05:12;;;;;;;27.42;15.93;;;;;;;6.77;73.05;101134.81;5066308;28;20424;-84
2021/03/09 02:07:38;;;;;;;27.05;15.63;;;;;;;6.75;73.14;101132.28;5067954;22;20109;-88
2021/03/09 02:10:09;;;;;;;26.67;15.10;;;;;;;6.64;73.82;101125.78;5037266;28;20124;-87
2021/03/09 02:12:59;;;;;;;21.25;14.98;;;;;;;6.73;73.42;101126.28;5033441;28;20032;-87
2021/03/09 02:15:45;;;;;;;24.65;15.30;;;;;;;6.66;73.71;101126.56;5049305;28;20029;-88
2021/03/09 02:18:19;;;;;;;23.35;14.35;;;;;;;6.72;72.93;101128.94;5032672;28;20029;-88
2021/03/09 02:20:48;;;;;;;25.15;13.98;;;;;;;6.63;73.62;101130.13;5050020;28;20017;-87
2021/03/09 02:23:25;;;;;;;22.10;14.55;;;;;;;6.54;73.91;101127.91;5050511;28;20029;-88
2021/03/09 02:26:21;;;;;;;29.50;14.90;;;;;;;6.67;73.04;101121.28;5050709;28;20039;-87
2021/03/09 02:29:14;;;;;;;26.75;14.38;;;;;;;6.64;73.13;101124.03;5031439;28;20072;-87
2021/03/09 02:31:43;;;;;;;25.00;14.05;;;;;;;6.38;74.22;101126.78;5041778;28;20478;-88
2021/03/09 02:34:12;;;;;;;19.75;11.75;;;;;;;6.49;74.54;101122.00;5059503;28;20024;-87
2021/03/09 02:36:40;;;;;;;22.88;13.40;;;;;;;6.48;74.64;101122.94;5053859;28;20079;-87
2021/03/09 02:39:09;;;;;;;20.52;13.23;;;;;;;6.72;73.97;101121.09;5054904;28;20102;-89
2021/03/09 02:41:44;;;;;;;15.32;11.98;;;;;;;6.71;73.56;101112.44;5054048;28;20079;-88
2021/03/09 02:44:13;;;;;;;20.58;13.35;;;;;;;6.66;73.85;101113.53;5051286;28;20044;-86
2021/03/09 02:46:41;;;;;;;19.60;11.57;;;;;;;6.78;73.19;101101.75;5053806;28;20025;-87
2021/03/09 02:49:11;;;;;;;22.67;11.63;;;;;;;6.94;71.92;101113.25;5054662;28;20028;-86
2021/03/09 02:51:38;;;;;;;18.67;11.70;;;;;;;6.82;72.89;101109.38;5051950;28;20036;-88
2021/03/09 02:54:05;;;;;;;15.05;10.23;;;;;;;6.88;72.40;101118.72;5053377;28;20386;-88
2021/03/09 02:56:32;;;;;;;19.58;9.75;;;;;;;6.91;72.20;101114.22;5054330;28;20020;-87
2021/03/09 02:58:59;;;;;;;19.52;12.32;;;;;;;6.73;73.49;101123.66;5053324;28;20052;-87
2021/03/09 03:01:26;;;;;;;20.20;11.88;;;;;;;6.82;72.81;101125.03;5047278;28;20021;-87
2021/03/09 03:03:54;;;;;;;19.00;10.85;;;;;;;6.86;72.63;101121.38;5054235;28;20028;-88
2021/03/09 03:06:20;;;;;;;20.48;12.02;;;;;;;6.86;73.01;101120.53;5052325;28;20430;-87
2021/03/09 03:08:47;;;;;;;20.23;11.52;;;;;;;6.95;72.25;101117.53;5053129;28;20036;-87
2021/03/09 03:11:13;;;;;;;16.85;10.80;;;;;;;7.02;71.53;101108.53;5054337;28;20025;-87
2021/03/09 03:13:40;;;;;;;19.40;11.50;;;;;;;6.97;70.91;101102.69;5049400;28;20510;-87
2021/03/09 03:16:06;;;;;;;19.67;11.63;;;;;;;6.82;72.00;101109.38;5051427;28;20075;-87
2021/03/09 03:18:41;;;;;;;20.67;12.63;;;;;;;6.83;72.58;101103.25;5033894;28;20033;-88
2021/03/09 03:21:11;;;;;;;16.58;12.25;;;;;;;6.80;72.46;101110.34;5033969;28;20479;-88
2021/03/09 03:23:38;;;;;;;23.35;11.68;;;;;;;6.66;73.63;101103.94;5016417;28;20029;-88
2021/03/09 03:26:06;;;;;;;14.55;11.32;;;;;;;6.79;72.28;101090.38;5032726;28;20112;-86
2021/03/09 03:28:34;;;;;;;15.00;10.23;;;;;;;6.82;71.51;101098.09;5053795;28;20487;-88
2021/03/09 03:31:01;;;;;;;22.83;12.23;;;;;;;6.67;72.72;101095.16;5052745;28;20099;-88
2021/03/09 03:33:27;;;;;;;20.80;12.30;;;;;;;6.42;74.83;101100.53;5014148;28;20515;-86
2021/03/09 03:35:53;;;;;;;25.98;12.45;;;;;;;6.51;75.14;101099.31;5028621;28;20029;-88
2021/03/09 03:38:19;;;;;;;21.52;12.68;;;;;;;6.52;75.75;101094.03;5052043;28;20108;-88
2021/03/09 03:40:45;;;;;;;19.05;12.82;;;;;;;6.57;75.39;101083.41;5053737;28;20100;-87
2021/03/09 03:43:10;;;;;;;21.70;14.20;;;;;;;6.62;74.91;101086.69;5052382;28;20118;-88
2021/03/09 03:45:36;;;;;;;25.33;13.55;;;;;;;6.65;74.78;101083.94;5053563;28;20509;-87
2021/03/09 03:48:01;;;;;;;19.75;13.07;;;;;;;6.78;73.50;101086.91;5033941;28;20203;-88
2021/03/09 03:50:29;;;;;;;20.00;12.63;;;;;;;6.63;73.71;101087.53;5053587;28;20025;-88
2021/03/09 03:53:01;;;;;;;27.45;11.18;;;;;;;6.86;72.81;101091.81;5028456;28;20486;-88
2021/03/09 03:56:01;;;;;;;18.50;10.68;;;;;;;6.98;71.40;101082.63;5031372;28;20072;-88
2021/03/09 03:58:35;;;;;;;20.80;12.05;;;;;;;6.46;75.17;101085.63;5051164;28;20029;-88
2021/03/09 04:01:02;;;;;;;27.98;12.38;;;;;;;6.65;74.90;101086.56;5049486;28;20033;-87
2021/03/09 04:03:31;;;;;;;20.92;12.07;;;;;;;6.71;73.44;101068.06;5029464;28;20025;-88
2021/03/09 04:05:59;;;;;;;24.52;13.05;;;;;;;6.51;75.35;101083.66;5050982;28;20037;-87
2021/03/09 04:08:24;;;;;;;19.33;12.10;;;;;;;6.54;75.41;101080.94;5034332;28;20036;-87
2021/03/09 04:10:51;;;;;;;19.38;12.60;;;;;;;6.53;75.32;101084.44;5052937;28;20029;-88
2021/03/09 04:13:18;;;;;;;31.70;13.82;;;;;;;6.60;76.32;101083.31;5052183;28;20589;-88
2021/03/09 04:15:45;;;;;;;22.17;12.07;;;;;;;6.72;74.80;101072.34;5035080;28;20056;-88
2021/03/09 04:18:12;;;;;;;24.85;11.63;;;;;;;6.83;75.45;101073.66;5042310;28;20029;-88
2021/03/09 04:20:41;;;;;;;26.27;12.77;;;;;;;6.69;75.71;101082.91;5052987;28;20029;-87
2021/03/09 04:23:08;;;;;;;24.08;11.75;;;;;;;6.78;75.60;101080.84;5052016;28;20096;-87
2021/03/09 04:25:34;;;;;;;19.52;12.40;;;;;;;6.82;75.32;101075.44;5050201;28;20052;-88
2021/03/09 04:28:01;;;;;;;22.85;11.52;;;;;;;6.63;76.83;101079.72;5051769;28;20407;-88
2021/03/09 04:30:27;;;;;;;20.80;11.45;;;;;;;6.79;75.68;101072.09;5035172;28;20116;-88
2021/03/09 04:32:53;;;;;;;28.55;12.15;;;;;;;6.88;74.81;101072.56;5052141;28;20103;-87
2021/03/09 04:35:18;;;;;;;20.15;11.93;;;;;;;6.79;75.29;101064.28;5052899;28;20120;-88
2021/03/09 04:37:44;;;;;;;17.98;11.20;;;;;;;6.72;75.82;101067.13;5050493;28;20049;-87
2021/03/09 04:40:10;;;;;;;28.58;12.43;;;;;;;6.84;75.54;101067.56;5052904;28;20029;-86
2021/03/09 04:42:36;;;;;;;23.95;12.20;;;;;;;6.86;75.24;101068.34;5045060;28;20033;-88
2021/03/09 04:45:03;;;;;;;22.67;11.25;;;;;;;7.02;74.01;101058.94;5036846;28;20048;-88
2021/03/09 04:47:31;;;;;;;16.80;9.73;;;;;;;7.12;72.98;101065.44;5044495;28;20067;-88
2021/03/09 04:49:57;;;;;;;22.00;11.35;;;;;;;7.09;72.71;101068.22;5052518;28;20429;-88
2021/03/09 04:52:24;;;;;;;18.95;11.55;;;;;;;7.00;72.84;101059.91;5051055;28;20021;-88
2021/03/09 04:54:50;;;;;;;17.88;10.50;;;;;;;6.97;73.15;101063.53;5050796;28;20075;-88
2021/03/09 04:57:16;;;;;;;18.85;11.48;;;;;;;6.66;74.94;101054.34;5050819;28;20095;-86
2021/03/09 04:59:41;;;;;;;21.40;13.13;;;;;;;6.78;74.76;101059.97;5052285;28;20033;-88
2021/03/09 05:02:08;;;;;;;23.27;12.15;;;;;;;6.65;75.02;101055.25;5038173;28;20033;-88
2021/03/09 05:04:34;;;;;;;16.65;12.10;;;;;;;6.66;75.80;101053.50;5036546;28;20075;-88
2021/03/09 05:06:59;;;;;;;22.58;12.57;;;;;;;6.64;75.94;101061.38;5053041;28;20116;-88
2021/03/09 05:09:24;;;;;;;17.58;11.18;;;;;;;6.65;76.27;101055.25;5052027;28;20045;-88
2021/03/09 05:11:50;;;;;;;23.52;12.27;;;;;;;6.63;75.97;101054.47;5047714;28;20017;-88
2021/03/09 05:14:15;;;;;;;16.40;11.48;;;;;;;6.75;75.53;101055.72;5051226;28;20395;-87
2021/03/09 05:16:40;;;;;;;18.90;12.50;;;;;;;6.79;75.16;101061.66;5051987;28;20480;-87
2021/03/09 05:19:06;;;;;;;23.65;11.02;;;;;;;6.90;74.24;101062.06;5046252;28;20432;-88
2021/03/09 05:21:31;;;;;;;21.50;12.65;;;;;;;7.03;73.53;101065.88;5029012;28;20040;-88
2021/03/09 05:23:56;;;;;;;23.67;12.80;;;;;;;6.90;73.80;101059.47;5012282;28;20037;-88
2021/03/09 05:26:22;;;;;;;25.27;13.02;;;;;;;6.75;74.89;101066.16;5017696;28;20026;-88
2021/03/09 05:28:48;;;;;;;22.73;11.43;;;;;;;6.82;73.81;101066.78;5031384;28;20116;-88
2021/03/09 05:31:14;;;;;;;29.63;12.65;;;;;;;6.65;74.84;101073.50;5031513;28;20113;-88
2021/03/09 05:33:39;;;;;;;20.08;10.40;;;;;;;6.68;75.38;101078.63;5031438;28;20116;-88
2021/03/09 05:36:05;;;;;;;21.50;12.20;;;;;;;6.69;75.11;101076.84;5013171;28;20034;-88
2021/03/09 05:38:30;;;;;;;23.55;11.48;;;;;;;6.71;75.78;101070.69;5031970;28;20025;-87
2021/03/09 05:40:59;;;;;;;16.85;11.63;;;;;;;6.71;74.88;101060.25;5031403;28;20029;-88
2021/03/09 05:43:24;;;;;;;21.92;12.05;;;;;;;6.80;75.10;101068.59;5031677;28;20033;-87
2021/03/09 05:45:50;;;;;;;20.02;12.85;;;;;;;6.75;75.36;101072.25;5013925;28;20021;-87
2021/03/09 05:48:15;;;;;;;23.42;11.35;;;;;;;6.60;75.62;101072.88;5031514;28;20025;-88
2021/03/09 05:50:41;;;;;;;18.33;10.88;;;;;;;6.72;75.34;101076.75;5029526;28;20029;-88
2021/03/09 05:53:06;;;;;;;17.83;10.52;;;;;;;6.83;74.68;101076.28;5031380;28;20537;-87
2021/03/09 05:55:32;;;;;;;16.23;9.93;;;;;;;6.96;73.43;101080.09;5030907;28;20033;-88
2021/03/09 05:57:58;;;;;;;16.85;9.82;;;;;;;6.91;73.70;101067.22;5028135;28;20025;-87
2021/03/09 06:00:24;;;;;;;20.20;9.82;;;;;;;6.90;74.11;101075.13;5015471;28;20026;-87
2021/03/09 06:02:52;;;;;;;15.85;10.48;;;;;;;6.87;74.28;101067.41;5015968;28;20030;-87
2021/03/09 06:05:17;;;;;;;17.65;10.40;;;;;;;6.75;75.65;101067.03;5031458;28;20026;-88
2021/03/09 06:07:43;;;;;;;25.42;11.45;;;;;;;6.99;75.10;101079.09;5024135;28;20439;-88
2021/03/09 06:10:22;;;;;;;15.45;10.10;;;;;;;7.18;74.01;101073.94;5015347;28;20025;-87
2021/03/09 06:12:52;;;;;;;21.60;11.45;;;;;;;7.01;75.93;101074.66;5015594;28;20078;-88
2021/03/09 06:15:17;;;;;;;20.33;11.57;;;;;;;7.15;75.15;101086.22;5015279;28;20036;-88
2021/03/09 06:17:51;;;;;;;15.80;11.82;;;;;;;7.23;74.85;101090.28;5014432;28;20033;-88
2021/03/09 06:20:17;;;;;;;24.90;11.45;;;;;;;7.33;74.52;101088.97;5016467;28;20602;-86
2021/03/09 06:22:46;;;;;;;17.85;10.75;;;;;;;7.46;74.06;101087.50;5034794;28;20037;-87
2021/03/09 06:25:14;;;;;;;20.80;11.73;;;;;;;7.51;74.66;101085.53;5032111;28;20030;-88
2021/03/09 06:27:40;;;;;;;21.83;10.63;;;;;;;7.42;75.25;101088.53;5036185;28;20110;-86
2021/03/09 06:30:32;;;;;;;16.45;10.27;;;;;;;7.60;74.44;101092.09;5029286;28;20484;-87
2021/03/09 06:32:57;;;;;;;15.63;10.50;;;;;;;7.78;73.92;101098.31;4997621;28;20029;-87
2021/03/09 06:35:27;;;;;;;19.63;10.68;;;;;;;7.70;74.41;101092.53;5014051;28;20105;-87
2021/03/09 06:37:53;;;;;;;17.38;10.48;;;;;;;7.72;74.59;101091.56;5023371;28;20163;-87
2021/03/09 06:40:18;;;;;;;17.50;9.20;;;;;;;7.81;74.51;101090.31;5016793;28;20112;-87
2021/03/09 06:42:44;;;;;;;18.08;10.45;;;;;;;7.50;75.44;101083.84;5034437;28;20036;-87
2021/03/09 06:45:19;;;;;;;12.85;10.13;;;;;;;7.80;74.87;101096.47;5034570;28;20430;-87
2021/03/09 06:47:47;;;;;;;25.80;11.85;;;;;;;7.81;75.29;101090.31;5034548;28;20044;-87
2021/03/09 06:50:15;;;;;;;18.75;11.13;;;;;;;7.90;74.77;101089.06;5033547;28;20038;-87
2021/03/09 06:52:42;;;;;;;21.42;10.68;;;;;;;7.95;74.78;101089.66;5034490;28;20494;-87
2021/03/09 06:55:12;;;;;;;15.52;10.45;;;;;;;8.10;73.78;101095.97;5032097;28;20041;-87
2021/03/09 06:57:39;;;;;;;16.58;10.13;;;;;;;8.18;73.37;101099.06;5034337;28;20028;-87
2021/03/09 07:00:07;;;;;;;18.35;9.65;;;;;;;8.10;72.94;101095.97;5031890;28;20375;-87
2021/03/09 07:02:33;;;;;;;13.20;10.18;;;;;;;8.12;73.55;101099.38;5034357;28;20025;-88
2021/03/09 07:05:01;;;;;;;14.82;10.10;;;;;;;8.26;73.08;101102.16;5011442;28;20396;-87
2021/03/09 07:07:29;;;;;;;18.52;11.35;;;;;;;8.19;73.93;101095.53;5018760;28;20125;-88
2021/03/09 07:10:07;;;;;;;15.75;9.63;;;;;;;8.40;73.38;101077.13;5023066;28;20458;-87
2021/03/09 07:12:34;;;;;;;13.93;10.05;;;;;;;8.48;72.69;101072.41;5034127;28;20025;-87
2021/03/09 07:15:00;;;;;;;18.95;10.77;;;;;;;8.50;73.12;101062.69;5033744;28;20076;-88
2021/03/09 07:17:28;;;;;;;14.02;10.35;;;;;;;8.45;72.76;101065.56;5029027;28;20471;-87
2021/03/09 07:19:55;;;;;;;12.23;9.23;;;;;;;8.69;71.36;101081.81;5033121;28;20040;-87
2021/03/09 07:22:22;;;;;;;12.93;9.32;;;;;;;8.79;70.53;101069.13;5015582;28;20472;-87
2021/03/09 07:25:07;;;;;;;11.23;8.55;;;;;;;8.71;69.97;101069.50;5032161;28;20026;-87
2021/03/09 07:28:05;;;;;;;14.05;9.40;;;;;;;8.66;70.46;101081.97;5014636;28;20505;-88
2021/03/09 07:30:37;;;;;;;15.23;9.88;;;;;;;8.59;70.73;101079.72;5016560;28;20037;-88
2021/03/09 07:33:02;;;;;;;;;;;;;;;8.71;70.21;101074.75;5034459;28;20021;-88
2021/03/09 07:35:29;;;;;;;16.02;10.18;;;;;;;8.69;69.91;101079.19;5033974;28;19919;-88
2021/03/09 07:37:55;;;;;;;13.30;10.05;;;;;;;8.80;70.19;101089.13;5033732;28;20386;-88
2021/03/09 07:40:25;;;;;;;13.05;10.15;;;;;;;8.86;71.57;101085.38;5034096;28;20029;-88
2021/03/09 07:42:50;;;;;;;18.83;10.35;;;;;;;9.26;69.31;101092.06;5041122;28;20049;-86
2021/03/09 07:45:18;;;;;;;12.15;8.88;;;;;;;9.53;67.45;101088.91;5038923;28;20058;-88
2021/03/09 07:47:50;;;;;;;15.18;9.68;;;;;;;9.55;68.40;101088.84;5033621;28;20033;-87
2021/03/09 07:50:17;;;;;;;15.50;9.82;;;;;;;9.35;67.44;101092.50;5033702;28;20064;-88
2021/03/09 07:52:58;;;;;;;14.25;10.27;;;;;;;9.50;68.22;101091.72;5033852;28;20033;-87
2021/03/09 07:55:24;;;;;;;21.25;11.20;;;;;;;9.51;68.58;101098.63;5032253;28;20036;-84
2021/03/09 07:58:15;;;;;;;13.80;10.27;;;;;;;10.77;65.98;101096.16;5032842;28;20026;-85
2021/03/09 08:00:51;;;;;;;16.98;10.25;;;;;;;11.78;61.76;101089.25;5033591;28;20442;-84
2021/03/09 08:03:21;;;;;;;15.82;9.20;;;;;;;12.62;60.99;101091.81;5034179;28;20541;-88
2021/03/09 08:05:50;;;;;;;17.50;8.85;;;;;;;14.00;57.23;101096.50;5048882;22;20036;-88
2021/03/09 08:08:35;;;;;;;12.20;7.70;;;;;;;14.92;52.60;101097.72;5037569;28;20040;-85
2021/03/09 08:11:01;;;;;;;14.35;7.53;;;;;;;14.68;53.88;101097.75;5053428;28;20035;-88
2021/03/09 08:13:27;;;;;;;11.38;6.97;;;;;;;15.08;51.09;101090.31;5053385;28;20025;-84
2021/03/09 08:18:44;;;;;;;12.38;5.95;;;;;;;15.21;51.29;101089.41;5069344;28;20384;-86
2021/03/09 08:21:10;;;;;;;18.63;7.60;;;;;;;15.88;48.10;101078.03;5069549;28;20039;-91
2021/03/09 08:23:45;;;;;;;10.15;5.50;;;;;;;16.70;47.26;101082.00;5064874;28;20029;-89
2021/03/09 08:26:13;;;;;;;11.45;6.30;;;;;;;16.87;45.62;101076.16;5061687;28;20047;-90
2021/03/09 08:28:40;;;;;;;12.07;6.07;;;;;;;16.19;47.43;101087.00;5047564;28;20032;-90
2021/03/09 08:31:11;;;;;;;12.60;6.22;;;;;;;16.06;47.28;101084.47;5050090;28;20318;-92
2021/03/09 08:33:41;;;;;;;9.48;6.43;;;;;;;16.54;46.49;101091.22;5047664;28;20029;-92
2021/03/09 08:36:22;;;;;;;16.75;6.05;;;;;;;16.58;46.30;101091.81;5046702;28;20025;-91
2021/03/09 08:39:10;;;;;;;13.80;5.90;;;;;;;18.14;42.66;101082.91;5047671;28;20075;-92
2021/03/09 08:41:36;;;;;;;8.60;5.75;;;;;;;17.90;42.26;101087.75;5049626;28;20088;-91
2021/03/09 08:44:16;;;;;;;8.57;5.10;;;;;;;18.41;41.94;101100.03;5054704;28;20489;-91
2021/03/09 08:46:52;;;;;;;10.48;5.07;;;;;;;19.54;39.80;101093.19;5049018;28;20044;-92
2021/03/09 08:49:36;;;;;;;14.35;5.60;;;;;;;19.52;38.42;101100.50;5051016;28;20022;-92
2021/03/09 08:52:07;;;;;;;6.65;4.60;;;;;;;20.48;37.35;101102.78;5050147;28;20479;-91
2021/03/09 08:54:45;;;;;;;9.73;4.60;;;;;;;20.25;38.23;101111.22;5048717;28;20383;-91
2021/03/09 08:57:14;;;;;;;9.70;4.70;;;;;;;20.75;35.91;101118.78;5047737;28;20294;-91
2021/03/09 08:59:41;;;;;;;6.82;4.18;;;;;;;20.69;36.80;101122.03;5048275;28;20036;-91
2021/03/09 09:02:13;;;;;;;11.40;4.20;;;;;;;20.05;36.79;101118.50;5047537;28;20544;-91
2021/03/09 09:04:42;;;;;;;10.75;4.55;;;;;;;21.47;35.21;101115.97;5047146;28;20033;-90
2021/03/09 09:07:31;;;;;;;7.75;4.55;;;;;;;21.51;35.15;101121.84;5061372;22;20148;-89
2021/03/09 09:10:25;;;;;;;7.28;4.35;;;;;;;21.67;34.52;101111.22;5048172;28;20025;-87
2021/03/09 09:12:55;;;;;;;7.75;4.18;;;;;;;21.49;34.70;101113.16;5047785;28;20467;-86
2021/03/09 09:15:32;;;;;;;6.28;4.15;;;;;;;21.56;33.98;101108.84;5047086;28;20121;-87
2021/03/09 09:18:01;;;;;;;8.00;4.22;;;;;;;21.84;33.86;101113.97;5047837;28;20064;-86
2021/03/09 09:20:39;;;;;;;7.30;4.13;;;;;;;22.04;33.63;101109.19;5048678;28;20037;-87
2021/03/09 09:23:19;;;;;;;9.18;4.35;;;;;;;22.42;31.90;101107.84;5048631;28;20120;-88
2021/03/09 09:25:47;;;;;;;4.45;3.55;;;;;;;22.72;32.63;101101.00;5045142;28;20116;-87
2021/03/09 09:28:32;;;;;;;8.75;5.13;;;;;;;21.97;33.09;101103.66;5045993;28;20078;-87
2021/03/09 09:31:00;;;;;;;11.07;4.65;;;;;;;22.28;32.23;101109.31;5035090;28;20114;-88
2021/03/09 09:33:28;;;;;;;7.13;4.07;;;;;;;23.41;31.60;101099.78;5033634;28;20049;-87
2021/03/09 09:35:54;;;;;;;8.48;4.15;;;;;;;23.51;29.64;101084.34;5034161;28;20635;-87
2021/03/09 09:38:20;;;;;;;9.18;4.40;;;;;;;23.82;30.67;101078.25;5033512;28;20047;-88
2021/03/09 09:40:47;;;;;;;9.68;4.60;;;;;;;25.08;29.13;101080.53;5034486;28;20021;-88
2021/03/09 09:43:20;;;;;;;8.52;3.88;;;;;;;23.45;31.05;101077.00;5034405;28;20040;-86
2021/03/09 09:45:55;;;;;;;10.45;3.92;;;;;;;22.63;31.47;101077.06;5034472;28;20030;-87
2021/03/09 09:48:27;;;;;;;6.47;3.88;;;;;;;22.86;31.44;101063.84;5033728;28;20025;-87
2021/03/09 09:50:55;;;;;;;7.47;4.05;;;;;;;22.37;32.61;101075.38;5032634;28;20502;-87
2021/03/09 09:53:37;;;;;;;5.78;3.90;;;;;;;22.86;31.45;101066.53;5031178;28;20042;-87
2021/03/09 09:56:05;;;;;;;8.00;3.70;;;;;;;22.35;32.27;101069.34;5046090;28;20029;-87
2021/03/09 09:59:01;;;;;;;6.15;3.85;;;;;;;23.28;30.98;101068.16;5033123;28;20590;-86
2021/03/09 10:01:32;;;;;;;9.15;4.07;;;;;;;22.32;32.07;101070.53;5029320;28;20040;-88
2021/03/09 10:04:02;;;;;;;;;;;;;;;21.67;33.50;101067.66;5034808;28;20519;-86
2021/03/09 10:06:29;;;;;;;7.05;3.65;;;;;;;23.03;31.12;101056.69;5027336;28;19969;-86
2021/03/09 10:09:06;;;;;;;10.98;4.10;;;;;;;23.47;30.98;101046.31;5026626;28;20484;-86
2021/03/09 10:11:31;;;;;;;10.05;3.85;;;;;;;22.03;32.25;101036.16;5020622;28;20029;-86
2021/03/09 10:14:05;;;;;;;7.70;3.63;;;;;;;22.18;32.09;101034.53;5023690;28;20547;-87
2021/03/09 10:16:38;;;;;;;7.95;3.33;;;;;;;23.86;30.38;101028.59;5034299;28;20030;-89
2021/03/09 10:19:03;;;;;;;7.13;3.03;;;;;;;23.64;30.61;101019.47;5051095;28;20021;-91
2021/03/09 10:21:33;;;;;;;4.45;3.00;;;;;;;22.53;31.82;101016.53;5041782;28;20499;-92
2021/03/09 10:24:01;;;;;;;9.00;2.28;;;;;;;23.19;30.28;101016.44;5017383;28;20040;-91
2021/03/09 10:26:32;;;;;;;8.73;2.60;;;;;;;23.86;29.45;101007.97;5041550;28;20029;-96
2021/03/09 10:39:20;;;;;;;5.47;2.95;;;;;;;25.85;26.41;100965.50;6110754;22;20155;-96
2021/03/09 10:49:23;;;;;;;3.58;2.35;;;;;;;24.13;28.17;100998.59;5001700;28;20054;-96
2021/03/09 10:52:09;;;;;;;4.78;3.00;;;;;;;24.26;26.44;100964.94;5497141;22;20037;-96
2021/03/09 10:54:39;;;;;;;4.53;2.60;;;;;;;24.20;28.61;100996.00;5016237;28;20034;-95
2021/03/09 10:57:09;;;;;;;5.43;2.50;;;;;;;24.17;28.20;100998.22;5002851;28;20061;-96
2021/03/09 10:59:36;;;;;;;6.95;3.05;;;;;;;24.19;27.79;100993.50;5013024;28;20084;-95
2021/03/09 11:02:01;;;;;;;5.85;2.95;;;;;;;24.71;27.54;101003.50;5021654;28;20073;-95
2021/03/09 11:04:27;;;;;;;5.78;2.90;;;;;;;24.01;28.44;101000.00;5024453;28;20030;-96
2021/03/09 11:06:52;;;;;;;4.63;2.95;;;;;;;24.42;28.17;101006.91;5034258;28;20028;-96
2021/03/09 11:11:53;;;;;;;5.43;2.83;;;;;;;24.71;27.72;100995.44;5838990;22;20066;-96
2021/03/09 11:14:18;;;;;;;5.97;3.17;;;;;;;24.07;27.98;100977.84;5069412;22;20098;-96
2021/03/09 11:19:19;;;;;;;7.45;2.70;;;;;;;23.31;28.62;101012.38;5271512;22;20060;-90
2021/03/09 11:21:44;;;;;;;7.55;2.80;;;;;;;23.60;27.41;101002.03;5054525;28;20127;-93
2021/03/09 11:24:10;;;;;;;10.18;3.08;;;;;;;22.74;29.03;100997.25;5055813;28;20016;-94
2021/03/09 11:29:11;;;;;;;5.60;3.05;;;;;;;21.86;29.39;100997.03;5090845;23;20116;-96
2021/03/09 11:31:37;;;;;;;5.30;2.42;;;;;;;22.47;29.36;101013.69;5038874;28;20010;-96
2021/03/09 11:34:05;;;;;;;6.38;2.80;;;;;;;22.70;28.68;100992.44;5498451;23;20033;-96
2021/03/09 11:36:31;;;;;;;4.22;2.65;;;;;;;22.65;28.34;100997.44;5047366;28;20021;-96
2021/03/09 11:38:57;;;;;;;7.47;3.35;;;;;;;22.47;29.03;101011.00;5081787;23;20029;-96
2021/03/09 11:43:57;;;;;;;7.20;2.92;;;;;;;22.67;28.89;101000.78;5555776;23;20044;-87
2021/03/09 12:02:29;;;;;;;6.28;3.53;;;;;;;23.03;29.58;100973.66;5823056;23;20037;-96
2021/03/09 12:04:54;;;;;;;7.03;3.45;;;;;;;22.29;29.85;100981.75;5295112;23;20105;-96
2021/03/09 12:07:21;;;;;;;5.38;3.42;;;;;;;22.25;29.82;100975.88;5164286;23;20044;-96
2021/03/09 12:09:50;;;;;;;4.78;3.25;;;;;;;22.07;30.09;100978.69;5128739;23;20024;-96
2021/03/09 12:12:16;;;;;;;6.55;3.40;;;;;;;22.60;29.12;101008.66;5194719;23;20076;-92
2021/03/09 12:14:41;;;;;;;6.25;4.25;;;;;;;22.02;30.01;100996.22;5034015;28;20025;-92